createdAt,value
2022-08-28T00:22:14.410Z,15.7
2022-08-28T00:32:16.069Z,15.4
2022-08-28T00:52:21.060Z,15.2
2022-08-28T01:12:26.041Z,14.9
2022-08-28T01:32:31.229Z,14.8
2022-08-28T01:42:33.564Z,14.7
2022-08-28T02:12:39.805Z,14.5
2022-08-28T02:22:42.406Z,14.4
2022-08-28T02:32:44.483Z,14.2
2022-08-28T02:42:47.055Z,14.1
2022-08-28T02:52:56.164Z,14
2022-08-28T03:02:58.188Z,13.9
2022-08-28T03:33:03.965Z,13.7
2022-08-28T03:53:08.778Z,13.3
2022-08-28T04:03:11.376Z,13.2
2022-08-28T04:33:17.320Z,12.7
2022-08-28T04:43:19.516Z,12.7
2022-08-28T04:53:21.941Z,12.6
2022-08-28T05:03:24.396Z,12.5
2022-08-28T05:13:26.610Z,12.5
2022-08-28T05:23:28.720Z,12.5
2022-08-28T05:33:31.146Z,12.6
2022-08-28T05:43:32.810Z,12.6
2022-08-28T05:53:35.423Z,12.8
2022-08-28T06:03:38.079Z,13
2022-08-28T06:13:40.089Z,13.2
2022-08-28T06:23:42.470Z,13.5
2022-08-28T06:33:44.718Z,13.8
2022-08-28T06:43:46.731Z,14.2
2022-08-28T06:53:48.942Z,14.8
2022-08-28T07:03:51.191Z,15.5
2022-08-28T07:13:53.163Z,16
2022-08-28T07:33:56.750Z,17.1
2022-08-28T07:54:01.892Z,16.7
2022-08-28T08:04:04.166Z,17
2022-08-28T08:14:06.205Z,17.1
2022-08-28T08:24:18.002Z,17
2022-08-28T08:44:12.743Z,17.3
2022-08-28T08:54:14.828Z,17.6
2022-08-28T09:04:18.491Z,17.8
2022-08-28T09:14:27.027Z,18.3
2022-08-28T09:24:21.435Z,18.9
2022-08-28T09:34:23.897Z,18.8
2022-08-28T10:04:30.663Z,19.6
2022-08-28T10:14:32.934Z,19.2
2022-08-28T10:34:37.601Z,19.9
2022-08-28T11:25:00.956Z,20.5
2022-08-28T11:34:51.346Z,21
2022-08-28T11:44:53.263Z,21.6
2022-08-28T12:04:57.059Z,21.4
2022-08-28T12:35:03.017Z,21.8
2022-08-28T12:45:04.768Z,22
2022-08-28T12:55:06.509Z,21.7
2022-08-28T13:05:08.618Z,22.5
2022-08-28T13:15:11.151Z,22.5
2022-08-28T13:25:20.257Z,22.3
2022-08-28T13:35:15.696Z,23.2
2022-08-28T13:45:18.147Z,21.8
2022-08-28T13:55:20.459Z,22.8
2022-08-28T14:05:22.849Z,23.1
2022-08-28T14:15:25.380Z,22.5
2022-08-28T14:35:29.803Z,22.7
2022-08-28T14:55:33.487Z,23.5
2022-08-28T15:05:35.743Z,23.6
2022-08-28T15:15:38.247Z,23.7
2022-08-28T15:25:40.671Z,22.6
2022-08-28T15:35:43.035Z,23
2022-08-28T15:45:45.237Z,22.1
2022-08-28T15:55:46.949Z,22.7
2022-08-28T16:05:48.841Z,22.6
2022-08-28T16:35:56.281Z,22.6
2022-08-28T16:45:57.929Z,21.6
2022-08-28T16:56:00.029Z,22
2022-08-28T17:06:02.391Z,21.6
2022-08-28T17:16:11.537Z,21
2022-08-28T17:36:09.144Z,20.8
2022-08-28T18:06:15.215Z,19.8
2022-08-28T18:16:17.629Z,19.5
2022-08-28T18:36:21.929Z,18.8
2022-08-28T18:56:33.596Z,18.4
2022-08-28T19:06:28.524Z,18.2
2022-08-28T19:36:35.229Z,17.4
2022-08-28T19:46:37.668Z,17.2
2022-08-28T20:06:42.009Z,16.7
2022-08-28T20:16:44.389Z,16.6
2022-08-28T20:36:48.312Z,16.2
2022-08-28T20:46:50.951Z,15.9
2022-08-28T20:56:52.629Z,15.8
2022-08-28T21:06:54.739Z,15.6
2022-08-28T21:16:56.960Z,15.5
2022-08-28T21:26:58.657Z,15.4
2022-08-28T21:47:02.435Z,15
2022-08-28T21:57:04.797Z,14.7
2022-08-28T22:07:06.612Z,14.4
2022-08-28T22:17:11.286Z,14.3
2022-08-28T22:37:13.140Z,14
2022-08-28T22:57:17.357Z,13.6
2022-08-28T23:07:19.661Z,13.6
2022-08-28T23:17:21.397Z,13.5
2022-08-28T23:27:36.055Z,13.3
2022-08-28T23:37:25.432Z,13.3
2022-08-28T23:47:27.886Z,13.1
2022-08-28T23:57:29.762Z,13
